Placerville, Colorado
Current Conditions -  °F | °C
As of 6:35 AM on Friday 28 Nov 2014 (Local Time) from KTEX Reporting Station
Clear Clear  
Wind Chill: 27°   Ceiling: Unl
Heat Index: 33°   Visibility: 10mi
Dew Point:   Wind: 7mph
Humidity: 34%   Direction: 120°ESE
Pressure: 30.35"   Gusts: NA
Location:  38.02°N, 108.05°W
Report Text: KTEX 281335Z AUTO 12006KT 10SM CLR 01/M13 A3035 RMK AO2 T00081134
Loading
Personal Weather Stations






























Interactive Weather Map New forecast layout! Learn more

10-Day Weather Forecast

Advertisements
Track Severe Weather on mobile